Onion Creek, California Weather observations

Data are for observation ending at time listed.
 Day   Time    Ave.   Ave.  Ave.  Vector   Max.   Stn.    Total    Solar   Ave.   Snow 
  of    of     Air    Rel.  Wind   Wind    Wind   Baro.  Precip.   Rad.    Soil   Depth
Year   Day     Temp.  Hum.  Speed  Dir.    Gust   Pres.                    Temp.       
2015   (PST)    F      %     mph   deg.    mph     mb.     in.     W/m2     F      in. 
---------------------------------------------------------------------------------------  
 186   11:40   77.1    31    2.3   257     10.1   834.5   35.06    1066    68.2   999.0
 186   11:50   76.5    31    2.6   283      8.5   834.4   35.10    1108    68.6   999.0
 186   12:00   76.7    32    1.4   218      4.9   834.4   35.06     971    69.1   999.0
 186   12:10   77.3    32    2.9   228      6.9   834.3   35.10    1097    69.5   999.0
 186   12:20   77.0    31    2.1   195      5.9   834.3   35.06    1139    69.8   999.0
 186   12:30   77.5    31    3.1   251      7.2   834.3   35.10    1102    70.0   999.0
 186   12:40   78.4    31    2.6   242      5.8   834.2   35.10    1085    70.2   999.0
 186   12:50   77.7    30    3.8   271     10.6   834.2   35.06    1064    70.4   999.0
 186   13:00   76.9    31    4.0   299     10.0   834.2   35.06     985    70.6   999.0
 186   13:10   77.2    31    3.1   284      6.8   834.2   35.06    1038    70.8   999.0
 186   13:20   77.6    30    1.2   106      4.7   834.1   35.06    1048    71.0   999.0
 186   13:30   77.8    31    3.1   268     11.2   834.0   35.06    1063    71.3   999.0
 186   13:40   78.7    30    2.3   222      9.1   833.9   35.10    1054    71.5   999.0
 186   13:50   79.5    29    2.6   265      5.4   833.9   35.10    1030    71.8   999.0
 186   14:00   78.9    30    2.0   244      5.5   833.9   35.06    1009    72.2   999.0
 186   14:10   79.1    30    3.0   212      6.9   833.8   35.06    1013    72.4   999.0
 186   14:20   79.3    29    4.0   267     12.9   833.8   35.06     984    72.8   999.0
 186   14:30   79.2    28    3.3   223     10.4   833.8   35.03     878    73.1   999.0
 186   14:40   78.7    29    3.9   248     10.4   833.7   35.06     908    73.3   999.0
 186   14:50   79.2    28    2.8   251      8.9   833.7   35.06     900    73.6   999.0
 186   15:00   80.1    28    3.7   247     11.8   833.6   35.06     857    73.9   999.0
 186   15:10   79.9    28    4.1   262      8.4   833.5   35.06     847    74.2   999.0
 186   15:20   80.0    27    2.6   260     12.6   833.4   35.06     801    74.4   999.0
 186   15:30   79.7    26    3.2   262      8.0   833.3   35.03     762    74.6   999.0
 186   15:40   79.9    28    3.9   272     10.8   833.3   35.03     722    74.8   999.0
 186   15:50   79.8    28    3.2   252      9.5   833.3   35.03     691    75.0   999.0
 186   16:00   79.8    28    3.3   274      8.4   833.3   35.03     660    75.1   999.0
 186   16:10   79.8    28    2.5   265     10.7   833.3   35.03     631    75.2   999.0
 186   16:20   79.2    28    2.4   251      8.0   833.3   35.03     602    75.3   999.0
 186   16:30   79.5    29    2.9   263      9.7   833.3   35.03     553    75.3   999.0
 186   16:40   79.2    29    3.7   269     10.3   833.4   35.03     538    75.3   999.0
 186   16:50   78.8    28    3.1   263      7.1   833.4   35.03     495    75.2   999.0
 186   17:00   78.4    29    4.1   238     10.1   833.4   35.06     460    75.2   999.0
 186   17:10   78.7    30    2.3   246      8.0   833.4   35.06     422    75.1   999.0
 186   17:20   78.7    30    2.4   250      9.6   833.4   35.06     389    75.1   999.0
 186   17:30   78.6    31    3.0   278      5.4   833.4   35.10     352    75.0   999.0
 186   17:40   77.1    31    2.7   269      7.5   833.5   35.06     317    75.0   999.0
 186   17:50   77.3    32    2.4   252      7.4   833.5   35.06     278    74.9   999.0
 186   18:00   76.1    34    3.3   283      7.7   833.6   35.06     236    74.9   999.0
 186   18:10   75.0    36    2.6   287      7.3   833.6   35.06     184    74.8   999.0
 186   18:20   73.7    40    2.0   263      6.8   833.7   35.06     126    74.8   999.0
 186   18:30   72.4    44    1.4   276      6.1   833.7   35.06      71    74.8   999.0
 186   18:40   70.6    50    0.5   301      2.3   833.7   35.06      47    74.7   999.0
 186   18:50   67.6    56    0.7   347      2.3   833.6   35.10      13    74.6   999.0
 186   19:00   65.9    60    0.4    54      2.2   833.6   35.06      10    74.5   999.0
 186   19:10   64.4    64    1.0    18      1.9   833.7   35.10       9    74.4   999.0
 186   19:20   63.1    67    1.2    31      2.4   833.8   35.10       6    74.2   999.0
 186   19:30   62.4    68    0.7    12      2.1   833.9   35.06       3    74.0   999.0
 186   19:40   61.8    69    1.7    34      3.7   834.0   35.06       2    73.8   999.0
 186   19:50   61.2    70    1.1    18      1.8   834.2   35.06       1    73.6   999.0
 186   20:00   61.0    70    1.8    42      3.1   834.3   35.06       0    73.4   999.0
 186   20:10   61.0    70    1.3    32      2.3   834.3   35.06       0    73.1   999.0
 186   20:20   60.0    72    0.6    35      1.8   834.4   35.06       0    72.9   999.0
 186   20:30   59.3    73    1.4    30      2.1   834.5   35.10       0    72.7   999.0
 186   20:40   59.1    72    0.8    45      1.7   834.5   35.06       0    72.5   999.0
 186   20:50   58.5    73    1.0    32      2.0   834.5   35.10       0    72.2   999.0
 186   21:00   58.3    73    1.3    30      1.9   834.5   35.06       0    72.0   999.0
 186   21:10   58.4    72    2.1    40      2.7   834.6   35.10       0    71.8   999.0
 186   21:20   58.5    71    2.0    38      2.9   834.6   35.10       0    71.6   999.0
 186   21:30   58.1    72    1.6    51      2.6   834.6   35.06       0    71.3   999.0
 186   21:40   57.6    73    1.2    26      2.1   834.6   35.10       0    71.1   999.0
 186   21:50   57.2    74    1.4    38      2.5   834.6   35.10       0    70.9   999.0
 186   22:00   57.2    74    0.3    10      1.0   834.7   35.10       0    70.7   999.0
 186   22:10   56.4    76    0.0    13      0.6   834.7   35.06       0    70.5   999.0
 186   22:20   56.2    76    0.9    50      1.5   834.8   35.10       0    70.3   999.0
 186   22:30   55.7    76    1.4    36      1.8   834.8   35.06       0    70.1   999.0
 186   22:40   55.8    73    1.9    34      2.9   834.8   35.10       0    69.9   999.0
 186   22:50   56.6    71    1.3    46      2.3   834.8   35.06       0    69.7   999.0
 186   23:00   56.7    71    1.6    34      2.3   834.8   35.10       0    69.5   999.0
 186   23:10   56.0    73    0.7    39      2.0   834.8   35.06       0    69.3   999.0
 186   23:20   55.9    73    1.7    37      2.3   834.8   35.06       0    69.1   999.0
 186   23:30   55.6    74    1.5    42      2.5   834.8   35.10       0    68.9   999.0
 186   23:40   55.5    74    1.5    38      3.2   834.8   35.10       0    68.7   999.0
 186   23:50   55.4    75    0.7    35      2.2   834.8   35.06       0    68.5   999.0
 187    0:00   55.1    76    0.4    47      1.2   834.8   35.06       0    68.3   999.0
 187    0:10   55.0    76    1.0    49      2.3   834.8   35.06       0    68.1   999.0
 187    0:20   55.1    76    1.0    40      2.2   834.8   35.06       0    68.0   999.0
 187    0:30   55.1    76    1.4    39      2.6   834.7   35.10       0    67.8   999.0
 187    0:40   55.0    76    1.7    40      2.5   834.7   35.10       0    67.6   999.0
 187    0:50   54.8    76    1.3    39      2.0   834.7   35.10       0    67.4   999.0
 187    1:00   55.0    76    1.3    42      2.3   834.7   35.10       0    67.3   999.0
 187    1:10   55.1    76    1.2    48      2.8   834.7   35.10       0    67.1   999.0
 187    1:20   55.1    76    1.4    43      2.9   834.8   35.06       0    66.9   999.0
 187    1:30   55.0    76    1.3    37      2.4   834.7   35.10       0    66.8   999.0
 187    1:40   55.1    76    1.0    48      1.8   834.7   35.10       0    66.6   999.0
 187    1:50   54.7    76    1.5    38      2.4   834.7   35.06       0    66.5   999.0
 187    2:00   54.1    77    1.1    42      2.8   834.7   35.10       0    66.3   999.0
 187    2:10   54.5    77    1.7    39      2.9   834.6   35.10       0    66.2   999.0
 187    2:20   54.6    76    0.9    34      2.1   834.6   35.10       0    66.0   999.0
 187    2:30   54.1    77    0.6    37      1.9   834.6   35.06       0    65.9   999.0
 187    2:40   54.2    77    2.1    38      2.8   834.6   35.06       0    65.7   999.0
 187    2:50   54.4    76    1.6    26      2.6   834.6   35.06       0    65.6   999.0
 187    3:00   54.5    76    1.7    33      3.2   834.6   35.06       0    65.4   999.0
 187    3:10   54.3    76    1.5    34      2.1   834.6   35.10       0    65.3   999.0
 187    3:20   54.2    76    1.3    29      2.9   834.6   35.06       0    65.2   999.0
 187    3:30   53.9    77    1.3    40      2.2   834.6   35.10       0    65.0   999.0
 187    3:40   53.8    77    0.9    42      2.6   834.6   35.10       0    64.9   999.0
 187    3:50   53.7    78    1.8    44      2.7   834.7   35.10       0    64.7   999.0
 187    4:00   53.5    78    1.6    41      2.6   834.7   35.10       0    64.6   999.0
 187    4:10   53.6    79    1.4    45      2.2   834.7   35.10       0    64.5   999.0
 187    4:20   53.2    80    0.8    30      1.7   834.8   35.06       0    64.3   999.0
 187    4:30   52.8    81    1.1    40      1.8   834.9   35.10       0    64.2   999.0
 187    4:40   52.7    82    1.5    39      2.8   835.0   35.10       1    64.1   999.0
 187    4:50   53.3    80    2.4    42      3.0   835.1   35.10       3    64.0   999.0
 187    5:00   54.0    78    1.5    49      2.5   835.1   35.10       5    63.8   999.0
 187    5:10   53.8    78    1.5    35      2.7   835.2   35.10       7    63.7   999.0
 187    5:20   53.0    81    1.7    36      2.9   835.3   35.10      10    63.6   999.0
 187    5:30   53.5    80    2.1    35      2.7   835.3   35.06      11    63.5   999.0
 187    5:40   53.9    81    1.2    47      2.3   835.4   35.10      13    63.3   999.0
 187    5:50   53.6    83    1.3    42      1.9   835.5   35.10      14    63.2   999.0
 187    6:00   53.5    84    2.0    40      2.6   835.6   35.10      16    63.1   999.0
 187    6:10   53.7    84    1.2    26      1.9   835.6   35.10      17    63.0   999.0
 187    6:20   53.8    85    1.4    26      2.7   835.6   35.10      20    62.9   999.0
 187    6:30   54.3    85    2.2    39      2.6   835.7   35.06      64    62.9   999.0
 187    6:40   55.1    83    2.1    43      2.6   835.7   35.10      29    62.8   999.0
 187    6:50   55.8    82    1.8    48      3.1   835.7   35.13      29    62.7   999.0
 187    7:00   56.5    81    1.7    44      2.4   835.7   35.13     162    62.7   999.0
 187    7:10   58.8    76    1.2    52      1.9   835.8   35.13     409    62.6   999.0
 187    7:20   60.6    72    1.3    64      2.3   835.9   35.13     444    62.5   999.0
 187    7:30   62.0    70    1.2    72      2.7   836.0   35.10     477    62.5   999.0
 187    7:40   63.0    68    1.0    74      2.2   836.0   35.13     510    62.5   999.0
 187    7:50   64.1    67    0.8    75      1.8   836.1   35.13     547    62.7   999.0
 187    8:00   65.2    66    1.1    69      2.6   836.1   35.13     580    62.8   999.0
 187    8:10   66.4    60    1.4   108      3.0   836.1   35.13     612    63.0   999.0
 187    8:20   69.0    54    0.6   103      2.6   836.2   35.10     644    63.2   999.0
 187    8:30   70.4    52    0.8    64      3.3   836.2   35.10     672    63.5   999.0
 187    8:40   71.0    49    1.4   242      6.6   836.2   35.10     698    63.8   999.0
 187    8:50   71.9    46    3.0   287      9.6   836.2   35.10     722    64.1   999.0
 187    9:00   71.9    44    3.5   266      8.3   836.2   35.10     748    64.4   999.0
 187    9:10   72.7    44    2.7   281      5.5   836.2   35.10     775    64.8   999.0
 187    9:20   72.7    42    3.2   258      7.2   836.1   35.13     802    65.1   999.0
 187    9:30   72.6    43    2.5   268      6.9   836.1   35.10     830    65.4   999.0
 187    9:40   73.1    41    2.5   258      7.6   836.2   35.13     862    65.5   999.0
 187    9:50   73.6    38    4.1   272      9.4   836.2   35.10     890    65.7   999.0
 187   10:00   73.9    40    3.5   291      9.1   836.3   35.10     912    65.9   999.0
 187   10:10   74.0    39    2.9   269      9.5   836.3   35.10     928    66.3   999.0
 187   10:20   74.6    41    2.6   236      7.7   836.3   35.10     947    66.6   999.0
 187   10:30   74.6    40    3.4   249      9.4   836.3   35.10     965    67.0   999.0
 187   10:40   74.5    39    2.9   279      6.6   836.3   35.10     978    67.4   999.0
 187   10:50   74.4    39    4.3   261     10.5   836.3   35.10     995    67.8   999.0
 187   11:00   74.5    38    3.3   240      8.0   836.3   35.06    1009    68.2   999.0
 187   11:10   75.3    38    3.4   260     11.0   836.3   35.10    1040    68.5   999.0
 187   11:20   75.7    37    2.8   265      6.1   836.3   35.06     935    68.9   999.0
 187   11:30   76.3    37    3.6   269      9.8   836.3   35.06    1030    69.3   999.0

Return to Onion Creek graphs page.


Western Regional Climate Center,wrcc@dri.edu